createdAt,value
2023-03-27T00:00:34.458Z,940.3
2023-03-27T00:01:36.288Z,940.3
2023-03-27T00:02:38.535Z,940.3
2023-03-27T00:03:41.568Z,940.2
2023-03-27T00:04:43.680Z,940.2
2023-03-27T00:05:45.327Z,940.2
2023-03-27T00:06:47.176Z,940.1
2023-03-27T00:07:49.140Z,940.1
2023-03-27T00:08:51.141Z,940.1
2023-03-27T00:09:53.168Z,940.1
2023-03-27T00:10:55.696Z,940.1
2023-03-27T00:11:57.787Z,940
2023-03-27T00:12:59.615Z,940
2023-03-27T00:14:01.464Z,940
2023-03-27T00:15:03.318Z,940.1
2023-03-27T00:16:05.157Z,940.1
2023-03-27T00:17:07.210Z,940
2023-03-27T00:18:09.233Z,940
2023-03-27T00:19:11.112Z,940
2023-03-27T00:20:12.862Z,940
2023-03-27T00:21:14.728Z,940
2023-03-27T00:22:16.668Z,940.1
2023-03-27T00:23:18.514Z,940.1
2023-03-27T00:24:20.274Z,940
2023-03-27T00:25:22.043Z,940
2023-03-27T00:26:23.974Z,940
2023-03-27T00:27:25.820Z,940
2023-03-27T00:28:27.675Z,940
2023-03-27T00:29:29.627Z,940
2023-03-27T00:30:31.687Z,939.9
2023-03-27T00:31:33.627Z,940
2023-03-27T00:32:35.712Z,939.9
2023-03-27T00:33:37.621Z,940
2023-03-27T00:34:39.496Z,939.9
2023-03-27T00:35:41.361Z,939.8
2023-03-27T00:36:43.294Z,939.9
2023-03-27T00:37:45.131Z,940
2023-03-27T00:38:46.991Z,939.9
2023-03-27T00:39:48.940Z,939.9
2023-03-27T00:40:51.122Z,940
2023-03-27T00:41:53.158Z,940
2023-03-27T00:42:55.100Z,940.1
2023-03-27T00:43:57.062Z,940
2023-03-27T00:44:58.803Z,939.9
2023-03-27T00:46:00.795Z,939.9
2023-03-27T00:47:02.822Z,939.9
2023-03-27T00:48:04.784Z,939.8
2023-03-27T00:49:06.714Z,939.9
2023-03-27T00:50:08.565Z,939.8
2023-03-27T00:51:10.417Z,939.8
2023-03-27T00:52:12.273Z,939.9
2023-03-27T00:53:14.123Z,939.8
2023-03-27T00:54:15.963Z,939.8
2023-03-27T00:55:17.929Z,939.8
2023-03-27T00:56:19.918Z,939.6
2023-03-27T00:57:21.832Z,939.6
2023-03-27T00:58:23.672Z,939.6
2023-03-27T00:59:25.433Z,939.6
2023-03-27T01:00:27.161Z,939.7
2023-03-27T01:01:29.131Z,939.7
2023-03-27T01:02:31.210Z,939.7
2023-03-27T01:03:33.576Z,939.6
2023-03-27T01:04:35.703Z,939.6
2023-03-27T01:05:37.651Z,939.5
2023-03-27T01:06:39.608Z,939.4
2023-03-27T01:08:02.240Z,939.5
2023-03-27T01:09:04.094Z,939.7
2023-03-27T01:10:05.929Z,939.6
2023-03-27T01:11:07.692Z,939.6
2023-03-27T01:12:09.659Z,939.6
2023-03-27T01:13:11.500Z,939.5
2023-03-27T01:14:13.326Z,939.5
2023-03-27T01:15:15.184Z,939.5
2023-03-27T01:16:17.048Z,939.4
2023-03-27T01:17:19.068Z,939.4
2023-03-27T01:18:20.920Z,939.4
2023-03-27T01:19:22.682Z,939.3
2023-03-27T01:20:24.566Z,939.3
2023-03-27T01:21:26.382Z,939.3
2023-03-27T01:22:28.343Z,939.3
2023-03-27T01:24:01.032Z,939.3
2023-03-27T01:25:02.865Z,939.4
2023-03-27T01:26:04.714Z,939.4
2023-03-27T01:27:06.565Z,939.4
2023-03-27T01:28:08.569Z,939.3
2023-03-27T01:29:10.365Z,939.2
2023-03-27T01:30:12.224Z,939.2
2023-03-27T01:31:17.270Z,939.2
2023-03-27T01:32:19.390Z,939.2
2023-03-27T01:33:21.145Z,939.2
2023-03-27T01:34:22.998Z,939.2
2023-03-27T01:35:24.960Z,939.2
2023-03-27T01:36:26.795Z,939.2
2023-03-27T01:37:28.768Z,939.2
2023-03-27T01:38:30.597Z,939.2
2023-03-27T01:39:32.546Z,939.2
2023-03-27T01:40:34.405Z,939.3
2023-03-27T01:41:36.258Z,939.3
2023-03-27T01:42:38.205Z,939.3
2023-03-27T01:43:40.187Z,939.3
2023-03-27T01:44:45.800Z,939.2
2023-03-27T01:45:47.440Z,939.2
2023-03-27T01:46:49.314Z,939.1
2023-03-27T01:47:51.371Z,939.2
2023-03-27T01:48:53.504Z,939.2
2023-03-27T01:49:55.360Z,939.2
2023-03-27T01:50:57.899Z,939.2
2023-03-27T01:52:00.278Z,939.1
2023-03-27T01:53:02.145Z,939.1
2023-03-27T01:54:03.994Z,939.1
2023-03-27T01:55:05.777Z,938.9
2023-03-27T01:56:07.590Z,939
2023-03-27T01:57:09.547Z,938.9
2023-03-27T01:58:11.376Z,938.9
2023-03-27T01:59:13.169Z,938.9
2023-03-27T02:00:19.916Z,938.9
2023-03-27T02:01:21.971Z,938.8
2023-03-27T02:02:24.034Z,938.9
2023-03-27T02:03:25.973Z,938.9
2023-03-27T02:04:27.944Z,938.9
2023-03-27T02:05:29.974Z,938.9
2023-03-27T02:06:31.806Z,939
2023-03-27T02:07:33.566Z,939
2023-03-27T02:08:35.411Z,939
2023-03-27T02:09:37.363Z,938.9
2023-03-27T02:10:39.224Z,938.9
2023-03-27T02:11:41.104Z,939
2023-03-27T02:12:42.919Z,938.9
2023-03-27T02:13:44.770Z,938.9
2023-03-27T02:14:46.741Z,938.9
2023-03-27T02:15:48.562Z,938.9
2023-03-27T02:16:50.417Z,938.8
2023-03-27T02:17:52.490Z,938.9
2023-03-27T02:18:54.645Z,938.9
2023-03-27T02:19:56.679Z,938.8
2023-03-27T02:20:58.948Z,938.8
2023-03-27T02:22:00.789Z,938.7
2023-03-27T02:23:02.765Z,938.7
2023-03-27T02:24:04.710Z,938.7
2023-03-27T02:25:06.659Z,938.7
2023-03-27T02:26:08.506Z,938.8
2023-03-27T02:27:10.343Z,938.7
2023-03-27T02:28:12.107Z,938.7
2023-03-27T02:29:14.059Z,938.7
2023-03-27T02:30:15.929Z,938.6
2023-03-27T02:31:35.607Z,938.6
2023-03-27T02:32:38.376Z,938.5
2023-03-27T02:33:40.709Z,938.5
2023-03-27T02:34:42.655Z,938.5
2023-03-27T02:35:44.517Z,938.5
2023-03-27T02:36:46.364Z,938.5
2023-03-27T02:37:48.215Z,938.5
2023-03-27T02:38:50.157Z,938.5
2023-03-27T02:39:52.111Z,938.5
2023-03-27T02:40:53.969Z,938.5
2023-03-27T02:41:56.027Z,938.4
2023-03-27T02:42:57.974Z,938.4
2023-03-27T02:43:59.819Z,938.4
2023-03-27T02:45:01.709Z,938.4
2023-03-27T02:46:03.820Z,938.4
2023-03-27T02:47:05.785Z,938.4
2023-03-27T02:48:07.757Z,938.3
2023-03-27T02:49:09.786Z,938.3
2023-03-27T02:50:11.646Z,938.2
2023-03-27T02:51:13.498Z,938.2
2023-03-27T02:52:15.347Z,938.1
2023-03-27T02:53:17.129Z,938.1
2023-03-27T02:54:18.940Z,938
2023-03-27T02:55:20.800Z,937.9
2023-03-27T02:56:22.753Z,937.9
2023-03-27T02:57:25.721Z,937.8
2023-03-27T02:58:27.584Z,937.9
2023-03-27T02:59:29.421Z,937.8
2023-03-27T03:00:31.278Z,937.8
2023-03-27T03:01:33.282Z,937.8
2023-03-27T03:02:35.536Z,937.9
2023-03-27T03:03:37.788Z,937.9
2023-03-27T03:04:39.483Z,937.9
2023-03-27T03:05:41.375Z,937.9
2023-03-27T03:06:43.204Z,937.9
2023-03-27T03:07:45.034Z,938
2023-03-27T03:08:47.005Z,938
2023-03-27T03:09:48.845Z,938.1
2023-03-27T03:10:50.808Z,938
2023-03-27T03:11:52.636Z,938
2023-03-27T03:12:54.488Z,938
2023-03-27T03:13:56.311Z,938
2023-03-27T03:14:58.208Z,937.9
2023-03-27T03:16:00.041Z,937.9
2023-03-27T03:17:02.146Z,937.8
2023-03-27T03:18:04.480Z,937.9
2023-03-27T03:19:06.569Z,937.8
2023-03-27T03:20:08.575Z,937.8
2023-03-27T03:21:10.532Z,937.7
2023-03-27T03:22:12.384Z,937.6
2023-03-27T03:23:17.403Z,937.5
2023-03-27T03:24:19.358Z,937.5
2023-03-27T03:25:21.208Z,937.6
2023-03-27T03:26:23.054Z,937.7
2023-03-27T03:27:24.791Z,937.6
2023-03-27T03:28:26.683Z,937.4
2023-03-27T03:29:28.675Z,937.3
2023-03-27T03:30:30.774Z,937.6
2023-03-27T03:31:32.805Z,937.4
2023-03-27T03:32:34.922Z,937.4
2023-03-27T03:33:37.025Z,937.3
2023-03-27T03:34:38.969Z,937.3
2023-03-27T03:35:40.874Z,937.2
2023-03-27T03:36:42.673Z,937.2
2023-03-27T03:37:44.640Z,937.3
2023-03-27T03:38:46.477Z,937.4
2023-03-27T03:39:48.435Z,937.4
2023-03-27T03:40:50.252Z,937.3
2023-03-27T03:41:52.113Z,937.4
2023-03-27T03:42:53.975Z,937.4
2023-03-27T03:43:55.829Z,937.4
2023-03-27T03:44:57.789Z,937.3
2023-03-27T03:45:59.773Z,937.3
2023-03-27T03:47:01.711Z,937.3
2023-03-27T03:48:03.706Z,937.3
2023-03-27T03:49:05.705Z,937.3
2023-03-27T03:50:07.643Z,937.2
2023-03-27T03:51:09.477Z,937.2
2023-03-27T03:52:11.453Z,937.2
2023-03-27T03:53:13.400Z,937.2
2023-03-27T03:54:15.146Z,937.1
2023-03-27T03:55:16.999Z,937.2
2023-03-27T03:56:18.842Z,937.4
2023-03-27T03:57:20.905Z,937.4
2023-03-27T03:58:35.546Z,937.2
2023-03-27T03:59:37.406Z,937.1
2023-03-27T04:00:39.452Z,937.2
2023-03-27T04:01:41.442Z,937
2023-03-27T04:02:43.819Z,937
2023-03-27T04:03:46.216Z,937.2
2023-03-27T04:04:48.383Z,937.3
2023-03-27T04:05:50.126Z,937.3
2023-03-27T04:06:51.982Z,937.3
2023-03-27T04:07:53.941Z,937.2
2023-03-27T04:08:55.793Z,937.3
2023-03-27T04:09:57.638Z,937.2
2023-03-27T04:10:59.600Z,937.1
2023-03-27T04:12:01.552Z,937
2023-03-27T04:13:03.499Z,937
2023-03-27T04:14:05.344Z,937.1
2023-03-27T04:15:07.206Z,937.2
2023-03-27T04:16:09.396Z,937.2
2023-03-27T04:17:11.439Z,937.4
2023-03-27T04:18:13.526Z,937.3
2023-03-27T04:19:15.655Z,937.2
2023-03-27T04:20:17.674Z,937.2
2023-03-27T04:21:19.531Z,937.1
2023-03-27T04:22:21.474Z,937.1
2023-03-27T04:23:23.226Z,937.1
2023-03-27T04:24:25.114Z,937.3
2023-03-27T04:25:26.934Z,937.4
2023-03-27T04:26:29.003Z,937.4
2023-03-27T04:27:30.829Z,937.4
2023-03-27T04:28:32.586Z,937.5
2023-03-27T04:29:34.435Z,937.5
2023-03-27T04:30:36.251Z,937.3
2023-03-27T04:31:38.359Z,937.2
2023-03-27T04:32:40.423Z,937.2
2023-03-27T04:33:42.355Z,937.4
2023-03-27T04:34:44.229Z,937.4
2023-03-27T04:36:07.909Z,937.4
2023-03-27T04:37:10.320Z,937.4
2023-03-27T04:38:11.988Z,937.4
2023-03-27T04:39:13.816Z,937.5
2023-03-27T04:40:15.769Z,937.5
2023-03-27T04:41:17.637Z,937.3
2023-03-27T04:42:19.477Z,937.3
2023-03-27T04:43:21.329Z,937.2
2023-03-27T04:44:23.162Z,937.2
2023-03-27T04:45:25.036Z,937.2
2023-03-27T04:46:26.999Z,937.2
2023-03-27T04:47:29.066Z,937.3
2023-03-27T04:48:31.084Z,937.2
2023-03-27T04:49:32.951Z,937.1
2023-03-27T04:50:34.820Z,937
2023-03-27T04:51:36.647Z,937
2023-03-27T04:52:38.485Z,937.1
2023-03-27T04:53:40.442Z,937.2
2023-03-27T04:54:42.188Z,937.2
2023-03-27T04:55:44.032Z,936.9
2023-03-27T04:56:46.139Z,936.8
2023-03-27T04:57:48.057Z,936.8
2023-03-27T04:58:49.997Z,936.8
2023-03-27T04:59:51.855Z,936.8
2023-03-27T05:00:53.614Z,937.1
2023-03-27T05:01:55.470Z,937
2023-03-27T05:02:57.560Z,936.9
2023-03-27T05:03:59.909Z,937
2023-03-27T05:05:01.939Z,937.1
2023-03-27T05:06:03.806Z,937.2
2023-03-27T05:07:05.615Z,937
2023-03-27T05:08:07.575Z,936.9
2023-03-27T05:09:09.419Z,936.7
2023-03-27T05:10:11.276Z,936.5
2023-03-27T05:11:13.111Z,936.2
2023-03-27T05:12:14.968Z,936.3
2023-03-27T05:13:16.920Z,936.4
2023-03-27T05:14:18.880Z,936.6
2023-03-27T05:15:20.642Z,936.7
2023-03-27T05:16:22.592Z,936.7
2023-03-27T05:17:25.071Z,936.4
2023-03-27T05:18:26.890Z,936.4
2023-03-27T05:19:28.743Z,936.5
2023-03-27T05:20:30.691Z,936.7
2023-03-27T05:21:32.446Z,936.8
2023-03-27T05:22:34.382Z,936.8
2023-03-27T05:23:36.233Z,936.7
2023-03-27T05:24:38.121Z,936.6
2023-03-27T05:25:39.942Z,936.6
2023-03-27T05:26:41.878Z,936.7
2023-03-27T05:27:43.753Z,936.7
2023-03-27T05:28:45.697Z,936.5
2023-03-27T05:29:48.266Z,936.4
2023-03-27T05:30:50.263Z,936.2
2023-03-27T05:31:55.270Z,936.2
2023-03-27T05:32:57.220Z,936.2
2023-03-27T05:33:59.243Z,936.3
2023-03-27T05:35:01.511Z,936.3
2023-03-27T05:36:03.565Z,936.3
2023-03-27T05:37:05.499Z,936.3
2023-03-27T05:38:07.234Z,936.2
2023-03-27T05:39:09.114Z,936.1
2023-03-27T05:40:11.069Z,936
2023-03-27T05:41:12.904Z,935.9
2023-03-27T05:42:14.763Z,935.8
2023-03-27T05:43:16.618Z,935.9
2023-03-27T05:44:18.458Z,935.9
2023-03-27T05:45:20.422Z,936
2023-03-27T05:46:22.615Z,935.9
2023-03-27T05:47:24.849Z,935.8
2023-03-27T05:48:26.795Z,935.8
2023-03-27T05:49:28.531Z,935.8
2023-03-27T05:50:30.481Z,935.7
2023-03-27T05:51:32.342Z,935.7
2023-03-27T05:52:34.232Z,935.6
2023-03-27T05:53:36.140Z,935.4
2023-03-27T05:54:37.996Z,935.3
2023-03-27T05:55:39.942Z,935.3
2023-03-27T05:56:41.804Z,935.3
2023-03-27T05:57:43.851Z,935.2
2023-03-27T05:58:45.802Z,935.2
2023-03-27T05:59:47.648Z,935.1
2023-03-27T06:00:49.595Z,935
2023-03-27T06:01:51.343Z,935
2023-03-27T06:02:53.343Z,934.9
2023-03-27T06:03:55.675Z,934.9
2023-03-27T06:04:57.925Z,934.8
2023-03-27T06:05:59.903Z,934.9
2023-03-27T06:07:02.046Z,934.8
2023-03-27T06:08:03.811Z,934.8
2023-03-27T06:09:05.734Z,934.7
2023-03-27T06:10:14.662Z,934.7
2023-03-27T06:11:16.511Z,934.8
2023-03-27T06:12:18.479Z,934.7
2023-03-27T06:13:20.413Z,934.8
2023-03-27T06:14:22.249Z,934.8
2023-03-27T06:15:24.202Z,934.7
2023-03-27T06:16:26.489Z,934.6
2023-03-27T06:17:28.422Z,934.5
2023-03-27T06:18:30.275Z,934.4
2023-03-27T06:19:32.119Z,934.4
2023-03-27T06:20:33.968Z,934.3
2023-03-27T06:21:35.726Z,934.3
2023-03-27T06:22:37.771Z,934.3
2023-03-27T06:23:39.646Z,934.3
2023-03-27T06:24:41.478Z,934.4
2023-03-27T06:25:43.330Z,934.4
2023-03-27T06:26:45.184Z,934.3
2023-03-27T06:27:47.151Z,934.2
2023-03-27T06:28:48.984Z,934.3
2023-03-27T06:29:50.823Z,934.4
2023-03-27T06:30:52.817Z,934.2
2023-03-27T06:31:54.628Z,934.1
2023-03-27T06:32:56.713Z,934
2023-03-27T06:33:58.530Z,934.1
2023-03-27T06:35:00.592Z,934
2023-03-27T06:36:02.678Z,934.1
2023-03-27T06:37:04.694Z,934.2
2023-03-27T06:38:06.430Z,934.1
2023-03-27T06:39:08.351Z,934
2023-03-27T06:40:10.252Z,934.1
2023-03-27T06:41:12.180Z,933.9
2023-03-27T06:42:14.155Z,934.2
2023-03-27T06:43:16.078Z,934.3
2023-03-27T06:44:17.867Z,934.4
2023-03-27T06:45:19.586Z,934.3
2023-03-27T06:46:32.307Z,934.3
2023-03-27T06:47:59.705Z,934.5
2023-03-27T06:49:22.902Z,934.4
2023-03-27T06:50:24.800Z,934.4
2023-03-27T06:51:26.713Z,934.4
2023-03-27T06:52:28.559Z,934.4
2023-03-27T06:53:38.353Z,934.3
2023-03-27T06:54:40.380Z,934.4
2023-03-27T06:55:42.234Z,934.4
2023-03-27T06:56:44.214Z,934.6
2023-03-27T06:57:46.510Z,934.5
2023-03-27T06:58:48.374Z,934.4
2023-03-27T06:59:50.220Z,934.5
2023-03-27T07:00:52.111Z,934.7
2023-03-27T07:01:54.135Z,934.8
2023-03-27T07:02:56.550Z,934.7
2023-03-27T07:03:58.550Z,934.7
2023-03-27T07:05:05.913Z,934.6
2023-03-27T07:06:26.613Z,934.6
2023-03-27T07:07:28.567Z,934.9
2023-03-27T07:08:30.847Z,934.9
2023-03-27T07:09:32.765Z,934.7
2023-03-27T07:10:34.636Z,934.7
2023-03-27T07:11:36.578Z,934.7
2023-03-27T07:12:38.427Z,934.7
2023-03-27T07:13:40.481Z,934.6
2023-03-27T07:14:42.324Z,934.5
2023-03-27T07:15:44.176Z,934.5
2023-03-27T07:16:46.053Z,934.7
2023-03-27T07:17:49.981Z,934.8
2023-03-27T07:18:52.078Z,934.7
2023-03-27T07:19:54.241Z,934.7
2023-03-27T07:20:56.904Z,934.7
2023-03-27T07:21:58.985Z,934.7
2023-03-27T07:23:00.804Z,934.6
2023-03-27T07:24:02.679Z,934.7
2023-03-27T07:25:04.454Z,934.7
2023-03-27T07:26:06.290Z,934.8
2023-03-27T07:27:08.108Z,934.7
2023-03-27T07:28:09.956Z,934.7
2023-03-27T07:29:11.731Z,934.7
2023-03-27T07:30:13.604Z,934.7
2023-03-27T07:31:57.825Z,934.6
2023-03-27T07:33:06.301Z,934.8
2023-03-27T07:34:08.724Z,934.8
2023-03-27T07:35:10.829Z,934.7
2023-03-27T07:36:12.684Z,934.7
2023-03-27T07:37:14.739Z,934.8
2023-03-27T07:38:16.747Z,934.8
2023-03-27T07:39:18.767Z,934.8
2023-03-27T07:40:40.272Z,934.8
2023-03-27T07:41:42.738Z,934.8
2023-03-27T07:42:44.674Z,934.8
2023-03-27T07:43:46.526Z,934.7
2023-03-27T07:44:48.269Z,934.7
2023-03-27T07:45:50.419Z,934.7
2023-03-27T07:46:52.268Z,934.7
2023-03-27T07:47:54.295Z,934.6
2023-03-27T07:48:56.320Z,934.6
2023-03-27T07:49:58.136Z,934.6
2023-03-27T07:51:14.556Z,934.6
2023-03-27T07:52:17.082Z,934.7
2023-03-27T07:53:35.034Z,934.9
2023-03-27T07:54:36.875Z,934.9
2023-03-27T07:55:38.657Z,934.9
2023-03-27T07:56:40.614Z,934.8
2023-03-27T07:58:03.078Z,934.7
2023-03-27T07:59:05.630Z,934.6
2023-03-27T08:00:07.312Z,934.6
2023-03-27T08:01:09.058Z,934.6
2023-03-27T08:02:10.752Z,934.7
2023-03-27T08:03:12.972Z,934.7
2023-03-27T08:04:15.195Z,934.6
2023-03-27T08:05:17.377Z,934.5
2023-03-27T08:06:19.089Z,934.4
2023-03-27T08:07:20.993Z,934.3
2023-03-27T08:08:23.038Z,934.3
2023-03-27T08:09:24.894Z,934.3
2023-03-27T08:10:26.640Z,934.3
2023-03-27T08:11:31.676Z,934.3
2023-03-27T08:12:33.621Z,934.3
2023-03-27T08:13:35.609Z,934.3
2023-03-27T08:14:37.616Z,934.3
2023-03-27T08:15:39.364Z,934.3
2023-03-27T08:16:41.551Z,934.2
2023-03-27T08:17:44.003Z,934.2
2023-03-27T08:18:46.093Z,934.2
2023-03-27T08:19:47.895Z,934.3
2023-03-27T08:20:49.761Z,934.4
2023-03-27T08:21:51.594Z,934.4
2023-03-27T08:22:53.446Z,934.3
2023-03-27T08:23:58.053Z,934.3
2023-03-27T08:24:59.815Z,934.3
2023-03-27T08:26:01.903Z,934.4
2023-03-27T08:27:03.710Z,934.3
2023-03-27T08:28:05.553Z,934.3
2023-03-27T08:29:07.543Z,934.2
2023-03-27T08:30:09.466Z,934.2
2023-03-27T08:31:11.793Z,934.1
2023-03-27T08:32:13.773Z,934
2023-03-27T08:33:15.734Z,934.1
2023-03-27T08:34:17.583Z,934.1
2023-03-27T08:35:19.666Z,934.1
2023-03-27T08:36:21.620Z,934.1
2023-03-27T08:37:23.551Z,934.1
2023-03-27T08:38:27.549Z,934.1
2023-03-27T08:39:29.332Z,934.1
2023-03-27T08:40:31.130Z,934.1
2023-03-27T08:41:33.099Z,934.1
2023-03-27T08:42:34.938Z,934.2
2023-03-27T08:43:36.882Z,934.3
2023-03-27T08:44:38.966Z,934.4
2023-03-27T08:45:40.800Z,934.5
2023-03-27T08:46:42.884Z,934.5
2023-03-27T08:47:45.043Z,934.2
2023-03-27T08:48:46.865Z,934.2
2023-03-27T08:49:48.928Z,934.4
2023-03-27T08:50:50.786Z,934.5
2023-03-27T08:51:52.619Z,934.5
2023-03-27T08:52:54.566Z,934.3
2023-03-27T08:53:56.292Z,934.3
2023-03-27T08:54:58.211Z,934.1
2023-03-27T08:56:00.224Z,934
2023-03-27T08:57:02.199Z,934
2023-03-27T08:58:04.356Z,933.8
2023-03-27T08:59:06.185Z,933.7
2023-03-27T09:00:08.284Z,933.5
2023-03-27T09:01:10.085Z,933.5
2023-03-27T09:02:13.949Z,933.5
2023-03-27T09:03:16.523Z,933.6
2023-03-27T09:04:18.500Z,933.6
2023-03-27T09:05:20.650Z,933.5
2023-03-27T09:06:22.515Z,933.6
2023-03-27T09:07:24.477Z,933.7
2023-03-27T09:08:26.217Z,933.7
2023-03-27T09:09:28.539Z,933.7
2023-03-27T09:10:30.957Z,933.6
2023-03-27T09:11:33.492Z,933.6
2023-03-27T09:12:36.213Z,933.6
2023-03-27T09:13:39.630Z,933.7
2023-03-27T09:14:41.821Z,933.7
2023-03-27T09:15:44.200Z,933.7
2023-03-27T09:16:47.490Z,933.7
2023-03-27T09:17:49.534Z,933.8
2023-03-27T09:18:51.479Z,934
2023-03-27T09:19:53.217Z,934.2
2023-03-27T09:20:55.142Z,934.2
2023-03-27T09:21:56.942Z,934.1
2023-03-27T09:22:58.777Z,934.1
2023-03-27T09:24:00.747Z,934
2023-03-27T09:25:02.759Z,934.1
2023-03-27T09:26:04.933Z,934.1
2023-03-27T09:27:08.130Z,934.1
2023-03-27T09:28:09.976Z,934
2023-03-27T09:29:11.820Z,934
2023-03-27T09:30:22.274Z,934
2023-03-27T09:31:24.518Z,934.1
2023-03-27T09:32:34.417Z,934.1
2023-03-27T09:33:36.404Z,934.1
2023-03-27T09:34:38.266Z,934.1
2023-03-27T09:35:40.238Z,934
2023-03-27T09:36:42.147Z,934.1
2023-03-27T09:37:44.032Z,934.1
2023-03-27T09:38:45.779Z,934
2023-03-27T09:39:47.647Z,933.9
2023-03-27T09:40:49.485Z,933.9
2023-03-27T09:41:51.641Z,933.9
2023-03-27T09:42:53.488Z,934
2023-03-27T09:43:55.339Z,934
2023-03-27T09:44:57.233Z,934.1
2023-03-27T09:45:59.443Z,934.2
2023-03-27T09:47:01.648Z,934.2
2023-03-27T09:48:03.806Z,934.2
2023-03-27T09:49:05.812Z,934.1
2023-03-27T09:50:07.545Z,934.1
2023-03-27T09:51:09.311Z,934
2023-03-27T09:52:11.152Z,933.9
2023-03-27T09:53:13.100Z,933.8
2023-03-27T09:54:14.962Z,933.9
2023-03-27T09:55:16.730Z,933.9
2023-03-27T09:56:18.482Z,933.9
2023-03-27T09:57:20.455Z,933.9
2023-03-27T09:58:22.585Z,933.7
2023-03-27T09:59:24.510Z,933.6
2023-03-27T10:00:26.284Z,933.4
2023-03-27T10:01:28.353Z,933.4
2023-03-27T10:02:30.494Z,933.4
2023-03-27T10:03:32.464Z,933.5
2023-03-27T10:04:34.386Z,933.6
2023-03-27T10:05:36.229Z,933.7
2023-03-27T10:06:38.084Z,933.8
2023-03-27T10:07:39.840Z,933.8
2023-03-27T10:08:41.580Z,933.8
2023-03-27T10:09:43.406Z,933.9
2023-03-27T10:10:45.377Z,934
2023-03-27T10:11:47.129Z,934.1
2023-03-27T10:12:48.988Z,934.2
2023-03-27T10:13:50.825Z,934.3
2023-03-27T10:14:53.402Z,934.2
2023-03-27T10:15:55.355Z,934.1
2023-03-27T10:16:57.552Z,934
2023-03-27T10:17:59.906Z,934.3
2023-03-27T10:19:02.143Z,934.4
2023-03-27T10:20:04.070Z,934.5
2023-03-27T10:21:05.753Z,934.4
2023-03-27T10:22:15.141Z,934.3
2023-03-27T10:23:17.091Z,934.1
2023-03-27T10:24:18.964Z,934.1
2023-03-27T10:25:21.030Z,934.1
2023-03-27T10:26:22.973Z,934.2
2023-03-27T10:27:24.836Z,934.2
2023-03-27T10:28:26.774Z,934
2023-03-27T10:29:28.726Z,933.9
2023-03-27T10:30:30.577Z,933.9
2023-03-27T10:31:32.536Z,933.9
2023-03-27T10:32:34.739Z,933.9
2023-03-27T10:33:36.760Z,933.8
2023-03-27T10:34:38.689Z,933.8
2023-03-27T10:35:40.663Z,933.7
2023-03-27T10:36:42.485Z,933.7
2023-03-27T10:37:51.733Z,933.6
2023-03-27T10:38:53.664Z,933.6
2023-03-27T10:39:55.458Z,933.5
2023-03-27T10:40:57.829Z,933.5
2023-03-27T10:42:00.098Z,933.4
2023-03-27T10:43:01.918Z,933.6
2023-03-27T10:44:03.720Z,933.5
2023-03-27T10:45:05.698Z,933.4
2023-03-27T10:46:07.683Z,933.4
2023-03-27T10:47:09.623Z,933.3
2023-03-27T10:48:11.740Z,933.2
2023-03-27T10:49:17.717Z,933.2
2023-03-27T10:50:19.746Z,933.1
2023-03-27T10:51:21.585Z,933
2023-03-27T10:52:23.445Z,933
2023-03-27T10:53:25.672Z,932.9
2023-03-27T10:54:31.929Z,932.8
2023-03-27T10:55:34.322Z,932.8
2023-03-27T10:56:36.184Z,932.8
2023-03-27T10:57:38.094Z,932.8
2023-03-27T10:58:39.981Z,932.8
2023-03-27T10:59:42.774Z,932.8
2023-03-27T11:00:44.736Z,932.8
2023-03-27T11:01:46.777Z,932.8
2023-03-27T11:02:48.836Z,932.8
2023-03-27T11:03:51.142Z,932.9
2023-03-27T11:04:53.753Z,932.9
2023-03-27T11:05:55.902Z,932.9
2023-03-27T11:06:58.031Z,932.9
2023-03-27T11:08:00.122Z,932.8
2023-03-27T11:09:02.167Z,932.8
2023-03-27T11:10:04.017Z,932.8
2023-03-27T11:11:05.672Z,932.9
2023-03-27T11:12:07.615Z,932.9
2023-03-27T11:13:09.546Z,933
2023-03-27T11:14:11.443Z,933.1
2023-03-27T11:15:13.359Z,933.1
2023-03-27T11:16:15.277Z,933.1
2023-03-27T11:17:17.058Z,933.2
2023-03-27T11:18:18.800Z,933.2
2023-03-27T11:19:20.650Z,933.3
2023-03-27T11:20:26.497Z,933.3
2023-03-27T11:21:28.364Z,933.5
2023-03-27T11:22:30.250Z,933.6
2023-03-27T11:23:32.160Z,933.6
2023-03-27T11:24:34.111Z,933.6
2023-03-27T11:25:35.951Z,933.7
2023-03-27T11:26:37.912Z,933.8
2023-03-27T11:27:39.764Z,933.9
2023-03-27T11:28:41.696Z,934
2023-03-27T11:29:43.672Z,934
2023-03-27T11:30:45.625Z,934
2023-03-27T11:31:47.695Z,934
2023-03-27T11:32:49.693Z,934.1
2023-03-27T11:33:51.875Z,934.1
2023-03-27T11:34:53.586Z,934.1
2023-03-27T11:35:55.755Z,934.1
2023-03-27T11:36:57.742Z,934.2
2023-03-27T11:37:59.537Z,934.2
2023-03-27T11:39:01.348Z,934.3
2023-03-27T11:40:03.268Z,934.3
2023-03-27T11:41:05.155Z,934.3
2023-03-27T11:42:06.938Z,934.3
2023-03-27T11:43:08.744Z,934.3
2023-03-27T11:44:10.700Z,934.2
2023-03-27T11:45:12.684Z,934.3
2023-03-27T11:46:14.636Z,934.3
2023-03-27T11:47:16.467Z,934.2
2023-03-27T11:48:18.584Z,934.3
2023-03-27T11:49:20.774Z,934.3
2023-03-27T11:50:22.698Z,934.3
2023-03-27T11:51:24.523Z,934.2
2023-03-27T11:52:26.411Z,934.1
2023-03-27T11:53:28.281Z,934.1
2023-03-27T11:54:30.110Z,934.1
2023-03-27T11:55:33.009Z,934
2023-03-27T11:56:35.050Z,934
2023-03-27T11:57:37.004Z,934
2023-03-27T11:58:38.763Z,934
2023-03-27T11:59:40.456Z,934.1
2023-03-27T12:00:42.229Z,934.2
2023-03-27T12:01:44.021Z,934.2
2023-03-27T12:02:46.218Z,934.2
2023-03-27T12:03:48.500Z,934.3
2023-03-27T12:04:50.376Z,934.3
2023-03-27T12:05:52.140Z,934.4
2023-03-27T12:06:54.188Z,934.4
2023-03-27T12:07:55.952Z,934.5
2023-03-27T12:08:57.787Z,934.5
2023-03-27T12:09:59.770Z,934.7
2023-03-27T12:11:01.565Z,934.7
2023-03-27T12:12:03.422Z,934.9
2023-03-27T12:13:05.054Z,934.9
2023-03-27T12:14:19.294Z,934.9
2023-03-27T12:15:25.544Z,935.1
2023-03-27T12:16:27.523Z,935.2
2023-03-27T12:17:29.692Z,935.3
2023-03-27T12:18:37.608Z,935.4
2023-03-27T12:19:44.828Z,935.5
2023-03-27T12:20:59.189Z,935.5
2023-03-27T12:22:02.753Z,935.6
2023-03-27T12:23:19.206Z,935.6
2023-03-27T12:24:20.937Z,935.7
2023-03-27T12:25:22.880Z,935.7
2023-03-27T12:26:24.662Z,935.7
2023-03-27T12:27:26.482Z,935.7
2023-03-27T12:28:28.567Z,935.7
2023-03-27T12:29:30.338Z,935.7
2023-03-27T12:30:32.258Z,935.6
2023-03-27T12:31:34.495Z,935.7
2023-03-27T12:32:36.645Z,935.7
2023-03-27T12:33:38.593Z,935.7
2023-03-27T12:34:40.540Z,935.7
2023-03-27T12:35:42.617Z,935.7
2023-03-27T12:36:49.022Z,935.8
2023-03-27T12:37:51.009Z,935.7
2023-03-27T12:38:52.961Z,935.7
2023-03-27T12:39:55.061Z,935.7
2023-03-27T12:40:57.869Z,935.6
2023-03-27T12:42:00.112Z,935.7
2023-03-27T12:43:02.082Z,935.7
2023-03-27T12:44:03.940Z,935.6
2023-03-27T12:45:05.729Z,935.6
2023-03-27T12:46:07.706Z,935.5
2023-03-27T12:47:09.649Z,935.4
2023-03-27T12:48:11.561Z,935.4
2023-03-27T12:49:13.405Z,935.3
2023-03-27T12:50:15.244Z,935.3
2023-03-27T12:51:17.041Z,935.2
2023-03-27T12:52:18.906Z,935.1
2023-03-27T12:53:21.038Z,935.1
2023-03-27T12:54:23.074Z,935.1
2023-03-27T12:55:24.915Z,935
2023-03-27T12:56:27.027Z,934.9
2023-03-27T12:57:29.290Z,934.9
2023-03-27T12:58:31.833Z,934.8
2023-03-27T12:59:34.053Z,934.8
2023-03-27T13:00:35.908Z,934.7
2023-03-27T13:01:53.081Z,934.6
2023-03-27T13:02:55.199Z,934.5
2023-03-27T13:03:57.628Z,934.4
2023-03-27T13:04:59.686Z,934.4
2023-03-27T13:06:01.525Z,934.4
2023-03-27T13:07:03.383Z,934.3
2023-03-27T13:08:05.235Z,934.3
2023-03-27T13:09:07.213Z,934.3
2023-03-27T13:10:09.148Z,934.2
2023-03-27T13:11:11.103Z,934.2
2023-03-27T13:12:12.951Z,934.1
2023-03-27T13:13:14.799Z,934.1
2023-03-27T13:14:16.705Z,934.1
2023-03-27T13:15:18.704Z,933.9
2023-03-27T13:16:20.722Z,933.8
2023-03-27T13:17:22.743Z,933.8
2023-03-27T13:18:24.652Z,933.8
2023-03-27T13:19:26.514Z,933.8
2023-03-27T13:20:28.461Z,933.8
2023-03-27T13:21:36.978Z,933.8
2023-03-27T13:22:39.022Z,933.7
2023-03-27T13:23:40.887Z,933.7
2023-03-27T13:24:42.838Z,933.7
2023-03-27T13:25:44.665Z,933.8
2023-03-27T13:26:46.622Z,933.8
2023-03-27T13:27:48.494Z,933.8
2023-03-27T13:28:50.421Z,933.9
2023-03-27T13:29:52.382Z,933.9
2023-03-27T13:30:54.447Z,933.9